Time;durP1;ratioP1;P1;durP2;ratioP2;P2;SDS_P1;SDS_P2;PMS_P1;PMS_P2;Temp;Humidity;BMP_temperature;BMP_pressure;BME280_temperature;BME280_humidity;BME280_pressure;Samples;Min_cycle;Max_cycle;Signal;HPM_P1;HPM_P2
2021/11/30 00:01:03;;;;;;;12.00;6.90;;;;;;;2.89;73.83;97066.48;106223;1315;138220;-61
2021/11/30 00:03:35;;;;;;;10.50;6.10;;;;;;;2.90;73.56;97077.02;106341;1315;23617;-61
2021/11/30 00:06:04;;;;;;;10.30;6.50;;;;;;;2.90;73.54;97082.24;106101;1316;138876;-61
2021/11/30 00:08:33;;;;;;;9.80;6.40;;;;;;;2.90;73.58;97083.80;106243;1315;22271;-61
2021/11/30 00:11:02;;;;;;;11.40;5.60;;;;;;;2.91;73.50;97081.70;106343;1315;23468;-61
2021/11/30 00:13:31;;;;;;;9.30;5.80;;;;;;;2.90;73.46;97081.66;106129;1313;138938;-61
2021/11/30 00:16:00;;;;;;;9.60;6.00;;;;;;;2.94;73.42;97084.99;106280;1313;22567;-61
2021/11/30 00:18:34;;;;;;;8.70;5.90;;;;;;;2.93;73.30;97090.10;106145;1314;138121;-61
2021/11/30 00:21:06;;;;;;;8.30;5.60;;;;;;;2.94;73.22;97094.95;106206;1315;147760;-61
2021/11/30 00:23:35;;;;;;;7.60;5.30;;;;;;;2.94;73.34;97106.89;106215;1313;140586;-60
2021/11/30 00:26:04;;;;;;;10.10;6.00;;;;;;;2.95;73.37;97114.42;106341;1315;22515;-61
2021/11/30 00:28:33;;;;;;;10.40;5.70;;;;;;;2.95;72.87;97114.84;105780;1313;23186;-61
2021/11/30 00:31:01;;;;;;;9.60;5.70;;;;;;;2.95;72.95;97118.14;105933;1317;139304;-61
2021/11/30 00:33:30;;;;;;;8.00;4.90;;;;;;;2.95;73.07;97122.98;106326;1314;22459;-61
2021/11/30 00:35:58;;;;;;;7.80;4.70;;;;;;;2.95;73.08;97125.98;106138;1315;138840;-60
2021/11/30 00:38:27;;;;;;;8.70;5.20;;;;;;;2.95;72.98;97117.81;106249;1315;22597;-61
2021/11/30 00:40:55;;;;;;;9.10;4.90;;;;;;;2.95;72.89;97121.48;103168;1314;24320;-58
2021/11/30 00:43:28;;;;;;;10.10;5.60;;;;;;;2.95;72.87;97120.34;102130;1315;138791;-57
2021/11/30 00:45:58;;;;;;;6.70;4.40;;;;;;;2.94;72.96;97118.83;102274;1316;24229;-55
2021/11/30 00:48:31;;;;;;;6.40;4.90;;;;;;;2.94;73.06;97118.55;106065;1315;137985;-59
2021/11/30 00:51:02;;;;;;;10.80;4.50;;;;;;;2.94;73.20;97123.71;106203;1315;22556;-57
2021/11/30 00:53:31;;;;;;;8.20;5.70;;;;;;;2.94;73.21;97126.67;106145;1316;138743;-55
2021/11/30 00:55:59;;;;;;;13.00;4.80;;;;;;;2.94;73.37;97130.50;106085;1315;22527;-54
2021/11/30 00:58:28;;;;;;;7.50;6.00;;;;;;;2.94;73.20;97135.19;106317;1316;22520;-58
2021/11/30 01:00:59;;;;;;;6.40;4.60;;;;;;;2.94;73.06;97134.75;106233;1315;137492;-59
2021/11/30 01:03:27;;;;;;;7.30;5.00;;;;;;;2.94;73.09;97140.40;106246;1315;22476;-59
2021/11/30 01:05:56;;;;;;;9.00;5.50;;;;;;;2.94;73.44;97136.20;106242;1314;139344;-59
2021/11/30 01:08:24;;;;;;;6.60;4.30;;;;;;;2.94;73.12;97141.41;106304;1314;23489;-54
2021/11/30 01:10:53;;;;;;;6.80;4.40;;;;;;;2.93;73.02;97143.19;106306;1315;23191;-59
2021/11/30 01:13:21;;;;;;;7.70;5.20;;;;;;;2.95;73.09;97145.61;106223;1314;138727;-55
2021/11/30 01:15:49;;;;;;;7.80;4.30;;;;;;;2.95;72.95;97140.34;106341;1315;23690;-56
2021/11/30 01:18:18;;;;;;;8.50;5.20;;;;;;;2.94;72.79;97138.13;106229;1315;137660;-59
2021/11/30 01:20:46;;;;;;;8.80;5.00;;;;;;;2.94;72.73;97138.56;106339;1315;23178;-59
2021/11/30 01:23:15;;;;;;;6.70;4.00;;;;;;;2.93;72.83;97136.69;106219;1315;22806;-57
2021/11/30 01:25:43;;;;;;;6.20;4.30;;;;;;;2.91;72.65;97132.27;106209;1316;137789;-58
2021/11/30 01:28:11;;;;;;;6.70;4.20;;;;;;;2.93;72.83;97140.23;106345;1315;22565;-55
2021/11/30 01:30:40;;;;;;;6.00;4.40;;;;;;;2.91;72.84;97141.41;106182;1314;138426;-55
2021/11/30 01:33:08;;;;;;;7.20;4.30;;;;;;;2.93;72.77;97141.57;105273;1324;22464;-60
2021/11/30 01:35:36;;;;;;;7.00;4.30;;;;;;;2.94;72.56;97145.61;106165;1315;137803;-60
2021/11/30 01:38:04;;;;;;;7.40;4.60;;;;;;;2.92;72.45;97143.62;106292;1315;23342;-59
2021/11/30 01:40:33;;;;;;;5.40;4.10;;;;;;;2.94;72.57;97143.08;103865;1318;26748;-58
2021/11/30 01:43:04;;;;;;;5.70;3.90;;;;;;;2.94;72.21;97141.30;105581;1316;137900;-59
2021/11/30 01:45:56;;;;;;;7.10;4.30;;;;;;;2.93;72.23;97153.89;106329;1315;22446;-60
2021/11/30 01:50:55;;;;;;;7.20;3.50;;;;;;;2.92;71.66;97153.63;106117;1315;22395;-59
2021/11/30 01:53:24;;;;;;;4.90;3.80;;;;;;;2.92;71.47;97149.54;105335;1315;139971;-54
2021/11/30 01:55:53;;;;;;;6.80;4.10;;;;;;;2.92;71.52;97156.20;106153;1317;22533;-60
2021/11/30 01:58:21;;;;;;;7.20;4.40;;;;;;;2.90;71.51;97151.73;106310;1314;22493;-58
2021/11/30 02:00:50;;;;;;;9.60;6.00;;;;;;;2.91;71.79;97156.90;106119;1313;139774;-59
2021/11/30 02:03:20;;;;;;;14.00;6.80;;;;;;;2.90;71.88;97168.45;106297;1313;22402;-58
2021/11/30 02:05:48;;;;;;;6.00;3.80;;;;;;;2.89;72.31;97168.61;106070;1318;139659;-54
2021/11/30 02:08:17;;;;;;;7.40;4.60;;;;;;;2.89;72.34;97169.42;106352;1315;22454;-59
2021/11/30 02:10:45;;;;;;;6.80;4.20;;;;;;;2.88;72.40;97175.79;105273;1323;22479;-58
2021/11/30 02:13:13;;;;;;;9.10;5.30;;;;;;;2.87;72.56;97175.67;105786;1317;137778;-55
2021/11/30 02:15:47;;;;;;;8.10;4.70;;;;;;;2.85;72.68;97177.02;106308;1313;22674;-54
2021/11/30 02:18:22;;;;;;;6.80;4.70;;;;;;;2.83;72.62;97183.58;106178;1314;137765;-56
2021/11/30 02:20:57;;;;;;;11.20;6.20;;;;;;;2.81;72.79;97185.55;106347;1316;22614;-58
2021/11/30 02:23:37;;;;;;;10.10;5.50;;;;;;;2.79;72.79;97190.23;106122;1316;138431;-59
2021/11/30 02:26:13;;;;;;;13.90;6.90;;;;;;;2.80;72.93;97189.20;106315;1316;22486;-54
2021/11/30 02:28:44;;;;;;;18.30;7.30;;;;;;;2.78;73.09;97189.04;105766;1316;22488;-56
2021/11/30 02:31:14;;;;;;;12.90;6.00;;;;;;;2.76;73.17;97192.89;106160;1313;138689;-56
2021/11/30 02:33:44;;;;;;;12.60;6.60;;;;;;;2.76;73.21;97192.69;106297;1314;22395;-55
2021/11/30 02:36:29;;;;;;;18.40;7.60;;;;;;;2.76;73.14;97190.80;106201;1314;138630;-54
2021/11/30 02:38:59;;;;;;;20.10;7.80;;;;;;;2.75;73.24;97194.29;106242;1315;22477;-59
2021/11/30 02:41:27;;;;;;;14.00;6.50;;;;;;;2.76;73.34;97195.32;106115;1318;138087;-60
2021/11/30 02:43:56;;;;;;;9.30;5.80;;;;;;;2.77;73.21;97194.73;105554;1315;22400;-61
2021/11/30 02:46:27;;;;;;;12.30;7.30;;;;;;;2.78;73.11;97195.49;106346;1315;23169;-61
2021/11/30 02:48:56;;;;;;;15.20;7.00;;;;;;;2.79;73.11;97200.70;106181;1314;138384;-61
2021/11/30 02:51:25;;;;;;;24.30;9.10;;;;;;;2.78;73.07;97204.68;106269;1315;22480;-61
2021/11/30 02:53:55;;;;;;;13.00;6.50;;;;;;;2.76;73.09;97200.11;106226;1314;138443;-61
2021/11/30 04:52:06;;;;;;;10.40;7.70;;;;;;;2.44;73.93;97310.08;99431;1356;557975;-68
2021/11/30 04:54:56;;;;;;;8.60;6.50;;;;;;;2.54;73.48;97315.14;105362;1326;118040;-69
2021/11/30 04:57:45;;;;;;;9.40;7.00;;;;;;;2.56;73.29;97316.60;105568;1323;22401;-69
2021/11/30 05:00:36;;;;;;;8.70;5.70;;;;;;;2.56;73.05;97329.56;105316;1329;22420;-69
2021/11/30 05:03:26;;;;;;;9.80;5.20;;;;;;;2.59;72.90;97331.78;105453;1326;22706;-69
2021/11/30 05:06:22;;;;;;;7.80;4.70;;;;;;;2.61;72.60;97332.20;105360;1325;23058;-68
2021/11/30 05:09:11;;;;;;;9.70;5.50;;;;;;;2.63;72.43;97336.35;105530;1328;22603;-68
2021/11/30 05:12:00;;;;;;;8.10;5.60;;;;;;;2.63;72.32;97341.41;105577;1325;23198;-68
2021/11/30 05:14:49;;;;;;;9.20;6.10;;;;;;;2.64;71.86;97343.95;105584;1325;23125;-68
2021/11/30 05:17:39;;;;;;;15.80;6.00;;;;;;;2.64;71.82;97358.63;105572;1326;22447;-68
2021/11/30 05:20:28;;;;;;;8.00;5.00;;;;;;;2.64;71.69;97359.81;105646;1322;22466;-68
2021/11/30 05:23:27;;;;;;;6.50;4.60;;;;;;;2.64;71.61;97359.21;105641;1325;22453;-68
2021/11/30 05:26:16;;;;;;;8.10;5.50;;;;;;;2.64;71.45;97367.71;105566;1325;22480;-63
2021/11/30 05:29:05;;;;;;;8.20;5.60;;;;;;;2.64;71.58;97365.94;105472;1325;22562;-63
2021/11/30 05:31:54;;;;;;;8.60;5.40;;;;;;;2.65;71.43;97370.84;105591;1325;22480;-63
2021/11/30 05:34:43;;;;;;;9.70;5.10;;;;;;;2.65;71.38;97376.00;105614;1323;22454;-63
2021/11/30 05:37:33;;;;;;;14.90;7.40;;;;;;;2.66;71.36;97385.52;105618;1326;22513;-62
2021/11/30 05:40:22;;;;;;;9.70;6.20;;;;;;;2.65;70.96;97388.74;105609;1325;22549;-63
2021/11/30 05:43:12;;;;;;;11.20;5.20;;;;;;;2.64;70.96;97395.95;105400;1325;22418;-63
2021/11/30 05:46:01;;;;;;;9.70;5.30;;;;;;;2.64;70.92;97399.92;105619;1326;23345;-63
2021/11/30 05:48:50;;;;;;;12.00;6.20;;;;;;;2.64;70.96;97396.64;105576;1330;22457;-63
2021/11/30 05:51:39;;;;;;;13.60;6.50;;;;;;;2.67;70.71;97407.73;105591;1326;22420;-63
2021/11/30 05:54:28;;;;;;;13.30;6.00;;;;;;;2.66;70.60;97411.72;105426;1325;22438;-63
2021/11/30 05:57:24;;;;;;;15.80;6.30;;;;;;;2.67;70.70;97420.16;105456;1325;22424;-61
2021/11/30 06:00:16;;;;;;;6.70;4.70;;;;;;;2.68;70.71;97428.30;105298;1325;23487;-62
2021/11/30 06:03:08;;;;;;;12.20;5.60;;;;;;;2.68;70.52;97430.77;105673;1326;22464;-61
2021/11/30 06:05:57;;;;;;;26.90;8.90;;;;;;;2.68;70.41;97442.43;106592;1317;22403;-61
2021/11/30 06:08:46;;;;;;;28.90;10.10;;;;;;;2.66;70.11;97451.94;106523;1319;22455;-62
2021/11/30 06:11:35;;;;;;;26.30;8.90;;;;;;;2.65;70.13;97454.73;106435;1316;22368;-62
2021/11/30 06:14:25;;;;;;;15.10;6.00;;;;;;;2.63;69.60;97467.44;106222;1313;22522;-61
2021/11/30 06:17:14;;;;;;;17.10;6.50;;;;;;;2.61;68.85;97472.91;106608;1317;22431;-62
2021/11/30 06:20:06;;;;;;;11.80;5.20;;;;;;;2.58;68.31;97475.86;106626;1317;23712;-63
2021/11/30 06:22:55;;;;;;;15.80;6.10;;;;;;;2.57;67.83;97481.06;106543;1316;22412;-62
2021/11/30 06:25:44;;;;;;;20.40;7.10;;;;;;;2.55;67.29;97486.16;106585;1317;22472;-61
2021/11/30 06:28:34;;;;;;;11.20;4.00;;;;;;;2.54;66.40;97489.15;106534;1312;22468;-61
2021/11/30 06:31:23;;;;;;;14.10;5.70;;;;;;;2.47;66.39;97492.42;106524;1319;22401;-62
2021/11/30 06:34:12;;;;;;;10.10;4.70;;;;;;;2.47;66.48;97490.11;106576;1316;22503;-61
2021/11/30 06:37:06;;;;;;;11.60;5.40;;;;;;;2.47;65.75;97481.94;106605;1317;23230;-61
2021/11/30 06:39:57;;;;;;;17.70;6.30;;;;;;;2.44;65.40;97485.42;106542;1319;22431;-61
2021/11/30 06:42:46;;;;;;;14.40;5.30;;;;;;;2.42;65.04;97497.01;106444;1316;22465;-62
2021/11/30 06:45:36;;;;;;;20.40;6.20;;;;;;;2.39;65.05;97497.34;106518;1318;23605;-61
2021/11/30 06:48:25;;;;;;;10.80;3.50;;;;;;;2.38;65.13;97495.72;106530;1313;22556;-61
2021/11/30 06:50:54;;;;;;;13.70;5.90;;;;;;;2.37;65.35;97503.13;105846;1316;138063;-61
2021/11/30 06:53:24;;;;;;;9.90;3.70;;;;;;;2.38;65.64;97502.83;106121;1316;22382;-61
2021/11/30 06:55:52;;;;;;;11.70;4.50;;;;;;;2.39;65.67;97502.99;106134;1315;139275;-61
2021/11/30 06:58:20;;;;;;;6.40;3.60;;;;;;;2.41;65.63;97504.14;105784;1316;22457;-61
2021/11/30 07:00:52;;;;;;;9.00;4.70;;;;;;;2.42;65.26;97507.80;106176;1315;22464;-61
2021/11/30 07:03:21;;;;;;;7.80;3.60;;;;;;;2.41;64.83;97511.88;106089;1316;137581;-61
2021/11/30 07:05:56;;;;;;;7.40;3.20;;;;;;;2.40;64.91;97512.89;106231;1316;22440;-62
2021/11/30 07:08:48;;;;;;;6.90;3.30;;;;;;;2.41;64.80;97514.84;106082;1315;140232;-62
2021/11/30 07:14:03;;;;;;;8.30;4.30;;;;;;;2.39;63.52;97513.42;106086;1316;137553;-61
2021/11/30 07:16:32;;;;;;;5.40;3.10;;;;;;;2.39;63.75;97510.95;106195;1316;22489;-61
2021/11/30 07:19:02;;;;;;;8.10;4.30;;;;;;;2.41;63.91;97511.72;106167;1315;23131;-60
2021/11/30 07:21:30;;;;;;;4.00;2.20;;;;;;;2.43;63.82;97508.63;106097;1315;137249;-61
2021/11/30 07:23:58;;;;;;;8.70;3.40;;;;;;;2.45;63.57;97510.09;106230;1316;23517;-61
2021/11/30 07:26:27;;;;;;;6.20;3.50;;;;;;;2.46;63.43;97509.88;106096;1315;137326;-61
2021/11/30 07:28:57;;;;;;;6.00;2.90;;;;;;;2.47;63.38;97508.81;106202;1316;22538;-61
2021/11/30 07:31:27;;;;;;;3.90;2.40;;;;;;;2.47;63.14;97504.09;106069;1320;138040;-60
2021/11/30 07:33:57;;;;;;;4.90;2.50;;;;;;;2.48;63.28;97507.16;106243;1316;22374;-60
2021/11/30 07:36:26;;;;;;;4.90;2.80;;;;;;;2.51;63.12;97503.69;106184;1315;23119;-61
2021/11/30 07:38:54;;;;;;;5.70;2.60;;;;;;;2.54;63.08;97510.06;106125;1316;138863;-61
2021/11/30 07:41:23;;;;;;;7.30;3.10;;;;;;;2.57;63.34;97511.39;106129;1315;22473;-61
2021/11/30 07:43:51;;;;;;;4.40;2.80;;;;;;;2.60;63.31;97523.88;106109;1316;138713;-61
2021/11/30 07:46:20;;;;;;;7.40;3.70;;;;;;;2.63;63.69;97531.05;106152;1316;23419;-61
2021/11/30 07:48:48;;;;;;;5.10;2.80;;;;;;;2.67;63.65;97529.52;105146;1324;22552;-61
2021/11/30 07:51:17;;;;;;;4.00;2.80;;;;;;;2.70;63.62;97531.44;106068;1316;139345;-62
2021/11/30 07:53:45;;;;;;;6.40;2.30;;;;;;;2.71;63.96;97529.04;106173;1316;23220;-62
2021/11/30 07:56:13;;;;;;;5.10;3.00;;;;;;;2.72;64.13;97532.44;106118;1316;138832;-61
2021/11/30 07:58:42;;;;;;;6.50;4.00;;;;;;;2.72;64.60;97528.84;106191;1315;22502;-61
2021/11/30 08:01:12;;;;;;;6.20;3.30;;;;;;;2.73;64.46;97526.47;106130;1316;22478;-61
2021/11/30 08:03:41;;;;;;;7.40;4.40;;;;;;;2.73;64.86;97535.89;106060;1316;137526;-61
2021/11/30 08:06:11;;;;;;;7.20;4.00;;;;;;;2.74;65.10;97535.02;106213;1316;22436;-61
2021/11/30 08:08:41;;;;;;;8.40;3.20;;;;;;;2.74;65.30;97532.91;106160;1316;137607;-61
2021/11/30 08:11:10;;;;;;;7.40;3.90;;;;;;;2.75;65.48;97537.22;106282;1315;22470;-62
2021/11/30 08:13:40;;;;;;;5.90;4.00;;;;;;;2.75;65.47;97534.53;106136;1316;137602;-62
2021/11/30 08:16:09;;;;;;;8.30;4.50;;;;;;;2.74;65.48;97542.39;106281;1315;23441;-61
2021/11/30 08:18:37;;;;;;;6.90;4.50;;;;;;;2.74;65.50;97540.56;106218;1316;22494;-61
2021/11/30 08:21:06;;;;;;;8.40;5.00;;;;;;;2.74;65.64;97539.92;106149;1316;138637;-61
2021/11/30 08:23:36;;;;;;;7.10;4.10;;;;;;;2.75;65.76;97538.84;106225;1316;22862;-62
2021/11/30 08:26:04;;;;;;;6.60;4.20;;;;;;;2.76;65.84;97532.39;106220;1316;137824;-61
2021/11/30 08:28:32;;;;;;;7.50;3.70;;;;;;;2.76;65.86;97534.38;106287;1316;22474;-60
2021/11/30 08:31:00;;;;;;;7.30;4.70;;;;;;;2.77;65.88;97534.44;106163;1316;22489;-61
2021/11/30 08:33:28;;;;;;;8.00;4.80;;;;;;;2.79;66.03;97531.52;106106;1316;138809;-62
2021/11/30 08:35:57;;;;;;;9.30;5.20;;;;;;;2.83;66.18;97532.89;106288;1316;22422;-62
2021/11/30 08:38:26;;;;;;;8.70;5.00;;;;;;;2.88;65.92;97535.46;106192;1316;138921;-61
2021/11/30 08:40:56;;;;;;;9.20;4.50;;;;;;;2.91;65.85;97539.23;106146;1315;22516;-61
2021/11/30 08:43:25;;;;;;;8.80;5.60;;;;;;;2.95;65.64;97541.31;106192;1316;139359;-61
2021/11/30 08:45:54;;;;;;;9.40;5.70;;;;;;;2.97;65.51;97543.77;106303;1316;22455;-61
2021/11/30 08:48:24;;;;;;;6.80;4.60;;;;;;;2.99;65.75;97538.99;106295;1316;22370;-62
2021/11/30 08:50:53;;;;;;;9.30;5.70;;;;;;;3.02;65.86;97538.36;106105;1316;137487;-62
2021/11/30 08:53:23;;;;;;;8.30;5.20;;;;;;;3.04;65.99;97543.10;106179;1316;23580;-62
2021/11/30 08:55:51;;;;;;;13.20;4.30;;;;;;;3.05;65.97;97541.54;105957;1317;138641;-62
2021/11/30 08:58:20;;;;;;;9.30;5.90;;;;;;;3.03;65.84;97542.55;106331;1316;22452;-62
2021/11/30 09:00:48;;;;;;;10.50;6.50;;;;;;;3.03;65.96;97541.39;106175;1319;22317;-62
2021/11/30 09:03:16;;;;;;;7.30;4.90;;;;;;;3.02;66.05;97539.23;106185;1316;137977;-62
2021/11/30 09:05:44;;;;;;;10.20;5.90;;;;;;;3.01;65.98;97538.10;105276;1316;22607;-62
2021/11/30 09:08:13;;;;;;;9.50;6.00;;;;;;;2.98;66.02;97536.23;105414;1316;139206;-62
2021/11/30 09:10:41;;;;;;;8.70;5.50;;;;;;;2.96;65.86;97537.08;106244;1315;22288;-62
2021/11/30 09:13:10;;;;;;;8.20;5.80;;;;;;;2.94;66.18;97543.08;106244;1316;23282;-62
2021/11/30 09:15:54;;;;;;;10.40;6.40;;;;;;;2.93;66.23;97538.92;106206;1316;137529;-62
2021/11/30 09:18:29;;;;;;;11.20;6.40;;;;;;;2.92;66.52;97533.81;106213;1316;22509;-62
2021/11/30 09:20:57;;;;;;;15.20;6.90;;;;;;;2.92;66.66;97535.73;106097;1316;138873;-62
2021/11/30 09:23:28;;;;;;;13.10;7.30;;;;;;;2.92;66.75;97530.95;106196;1316;22533;-62
2021/11/30 09:25:56;;;;;;;12.70;6.60;;;;;;;2.91;67.05;97527.29;105516;1320;138354;-62
2021/11/30 09:28:25;;;;;;;7.10;5.00;;;;;;;2.91;66.29;97525.52;106281;1316;22545;-62
2021/11/30 09:30:53;;;;;;;6.80;4.40;;;;;;;2.87;64.81;97525.78;106248;1316;22503;-62
2021/11/30 09:34:16;;;;;;;7.60;4.20;;;;;;;2.84;64.38;97520.38;106173;1316;137944;-62
2021/11/30 09:36:46;;;;;;;7.00;4.20;;;;;;;2.82;63.76;97523.79;106203;1316;22511;-62
2021/11/30 09:39:15;;;;;;;5.60;3.80;;;;;;;2.82;63.76;97525.08;106201;1315;138559;-66
2021/11/30 09:41:43;;;;;;;6.40;4.20;;;;;;;2.81;63.81;97528.40;106203;1316;23222;-67
2021/11/30 09:44:16;;;;;;;8.30;4.50;;;;;;;2.81;63.88;97527.70;106166;1316;137832;-66
2021/11/30 09:46:44;;;;;;;6.00;4.20;;;;;;;2.81;63.70;97522.44;105807;1316;22753;-66
2021/11/30 09:49:14;;;;;;;11.60;4.00;;;;;;;2.81;63.77;97523.56;106194;1316;22602;-66
2021/11/30 09:51:42;;;;;;;6.00;4.00;;;;;;;2.81;63.63;97517.98;106087;1316;138210;-66
2021/11/30 09:54:10;;;;;;;6.90;3.80;;;;;;;2.80;63.42;97520.60;106224;1316;22444;-66
2021/11/30 09:56:41;;;;;;;7.60;3.80;;;;;;;2.79;63.01;97517.25;106082;1316;137791;-66
2021/11/30 09:59:09;;;;;;;6.90;4.00;;;;;;;2.78;63.26;97527.95;106210;1316;22433;-66
2021/11/30 10:01:39;;;;;;;8.20;4.00;;;;;;;2.79;63.40;97521.98;106064;1320;139168;-66
2021/11/30 10:04:08;;;;;;;6.30;3.50;;;;;;;2.78;63.23;97516.38;106195;1316;22467;-66
2021/11/30 10:06:36;;;;;;;7.30;4.10;;;;;;;2.79;63.22;97517.67;106226;1316;22472;-66
2021/11/30 10:09:14;;;;;;;6.70;3.80;;;;;;;2.78;63.31;97511.81;105791;1316;137899;-66
2021/11/30 10:11:43;;;;;;;4.60;3.00;;;;;;;2.79;63.25;97510.21;106216;1316;22493;-66
2021/11/30 10:14:23;;;;;;;5.50;3.40;;;;;;;2.81;62.95;97513.14;106086;1318;138028;-66
2021/11/30 10:17:18;;;;;;;6.00;3.20;;;;;;;2.84;62.81;97517.41;103371;1317;22659;-62
2021/11/30 10:19:59;;;;;;;5.30;3.20;;;;;;;2.87;63.05;97522.17;102024;1316;138852;-62
2021/11/30 10:22:41;;;;;;;4.80;3.10;;;;;;;2.87;62.43;97526.15;102231;1316;22591;-62
2021/11/30 10:25:23;;;;;;;8.10;3.80;;;;;;;2.84;62.62;97529.52;102210;1316;25501;-60
2021/11/30 10:27:59;;;;;;;5.70;3.10;;;;;;;2.83;62.61;97531.02;106095;1316;136713;-62
2021/11/30 10:30:30;;;;;;;7.60;3.80;;;;;;;2.81;62.55;97530.61;106222;1316;22495;-62
2021/11/30 10:33:02;;;;;;;4.10;2.90;;;;;;;2.79;62.73;97531.35;106111;1316;137210;-62
2021/11/30 10:35:30;;;;;;;9.60;4.30;;;;;;;2.77;63.20;97534.98;106218;1316;22594;-62
2021/11/30 10:38:00;;;;;;;8.70;4.30;;;;;;;2.77;63.38;97542.23;106093;1320;138297;-62
2021/11/30 10:40:29;;;;;;;11.00;5.10;;;;;;;2.78;63.75;97550.64;106191;1316;23142;-62
2021/11/30 10:42:59;;;;;;;8.60;5.00;;;;;;;2.79;64.27;97549.04;106151;1316;22575;-62
2021/11/30 10:45:31;;;;;;;6.90;4.70;;;;;;;2.79;64.86;97547.54;105187;1316;137412;-60
2021/11/30 10:48:20;;;;;;;10.80;5.70;;;;;;;2.78;65.18;97549.03;106199;1316;22509;-60
2021/11/30 10:50:55;;;;;;;11.80;6.40;;;;;;;2.76;65.67;97555.78;106109;1317;138973;-61
2021/11/30 10:53:25;;;;;;;12.30;7.20;;;;;;;2.73;65.94;97556.04;106170;1317;22481;-61
2021/11/30 10:56:01;;;;;;;9.90;5.60;;;;;;;2.71;66.23;97551.45;106066;1316;138940;-61
2021/11/30 10:58:33;;;;;;;11.60;6.30;;;;;;;2.69;66.30;97549.88;106222;1316;22283;-60
2021/11/30 11:01:13;;;;;;;9.90;5.90;;;;;;;2.68;66.29;97549.05;106217;1316;22483;-60
2021/11/30 11:03:42;;;;;;;10.70;5.50;;;;;;;2.66;66.20;97551.89;106035;1316;137687;-60
2021/11/30 11:06:29;;;;;;;8.30;5.30;;;;;;;2.65;66.37;97553.05;106215;1316;22618;-60
2021/11/30 11:09:09;;;;;;;8.60;5.20;;;;;;;2.64;66.26;97555.52;106027;1316;138069;-60
2021/11/30 11:12:01;;;;;;;7.30;4.50;;;;;;;2.63;66.00;97553.56;106180;1316;22321;-60
2021/11/30 11:14:30;;;;;;;6.20;3.90;;;;;;;2.62;65.91;97549.63;105672;1316;137980;-61
2021/11/30 11:17:02;;;;;;;6.60;4.50;;;;;;;2.61;65.56;97550.16;106186;1316;22516;-60
2021/11/30 11:19:45;;;;;;;6.70;4.20;;;;;;;2.62;65.32;97549.31;106131;1316;137755;-60
2021/11/30 11:22:17;;;;;;;7.50;3.70;;;;;;;2.64;65.09;97550.67;105899;1321;22281;-60
2021/11/30 11:24:50;;;;;;;5.60;4.40;;;;;;;2.65;64.73;97553.05;106205;1316;23161;-61
2021/11/30 11:27:39;;;;;;;11.60;4.60;;;;;;;2.64;64.61;97548.42;106136;1316;138272;-64
2021/11/30 11:30:09;;;;;;;6.10;4.10;;;;;;;2.66;64.06;97539.63;105254;1316;23342;-64
2021/11/30 11:32:37;;;;;;;19.10;7.70;;;;;;;2.66;64.02;97548.02;106091;1320;139642;-64
2021/11/30 11:35:06;;;;;;;8.10;3.70;;;;;;;2.67;63.85;97549.80;105229;1325;22455;-64
2021/11/30 11:37:35;;;;;;;9.70;4.60;;;;;;;2.67;63.79;97552.70;106160;1316;138437;-64
2021/11/30 11:40:06;;;;;;;10.00;5.20;;;;;;;2.67;63.86;97552.16;106197;1317;23253;-64
2021/11/30 11:42:35;;;;;;;7.00;4.00;;;;;;;2.66;63.59;97550.70;106233;1318;23247;-64
2021/11/30 11:45:04;;;;;;;5.30;3.80;;;;;;;2.65;63.78;97545.59;105167;1321;137899;-65
2021/11/30 11:47:35;;;;;;;9.90;5.80;;;;;;;2.66;63.91;97551.98;106267;1316;23518;-65
2021/11/30 11:50:11;;;;;;;17.00;8.30;;;;;;;2.67;64.05;97555.83;105907;1320;138806;-65
2021/11/30 11:52:41;;;;;;;9.00;5.70;;;;;;;2.69;64.03;97557.89;106179;1318;22402;-65
2021/11/30 11:55:17;;;;;;;6.10;4.00;;;;;;;2.70;64.01;97558.27;106176;1320;22419;-58
2021/11/30 11:57:59;;;;;;;6.90;3.50;;;;;;;2.70;63.60;97564.67;106158;1316;137835;-61
2021/11/30 12:00:32;;;;;;;4.70;2.60;;;;;;;2.68;63.39;97563.63;106148;1316;23235;-62
2021/11/30 12:03:05;;;;;;;5.60;3.00;;;;;;;2.62;62.92;97565.29;106059;1318;138413;-62
2021/11/30 12:05:53;;;;;;;6.20;3.20;;;;;;;2.60;63.24;97566.26;106196;1316;22524;-61
2021/11/30 12:08:21;;;;;;;4.50;2.80;;;;;;;2.59;63.32;97569.69;106109;1316;137661;-62
2021/11/30 12:10:50;;;;;;;6.30;3.00;;;;;;;2.58;63.18;97570.70;106162;1316;22534;-62
2021/11/30 12:13:23;;;;;;;6.50;2.50;;;;;;;2.56;63.36;97574.23;106241;1318;23079;-62
2021/11/30 12:16:05;;;;;;;6.80;2.30;;;;;;;2.56;63.31;97579.16;106068;1318;139210;-62
2021/11/30 12:18:47;;;;;;;4.90;2.40;;;;;;;2.52;62.83;97580.30;106168;1318;22490;-62
2021/11/30 12:21:18;;;;;;;5.10;2.30;;;;;;;2.46;62.71;97582.77;106051;1316;137812;-63
2021/11/30 12:23:54;;;;;;;8.80;2.90;;;;;;;2.40;62.87;97591.64;106215;1316;22282;-62
2021/11/30 12:26:34;;;;;;;5.30;2.80;;;;;;;2.35;62.62;97595.72;106118;1316;138030;-62
2021/11/30 12:29:18;;;;;;;5.30;3.10;;;;;;;2.31;62.65;97590.14;106218;1317;22487;-62
2021/11/30 12:31:47;;;;;;;5.10;2.90;;;;;;;2.32;62.50;97591.80;106100;1316;138160;-62
2021/11/30 12:34:35;;;;;;;6.20;2.50;;;;;;;2.34;62.19;97593.39;106216;1316;22677;-62
2021/11/30 12:37:05;;;;;;;4.50;2.60;;;;;;;2.37;62.16;97596.98;106186;1318;22470;-62
2021/11/30 12:40:05;;;;;;;4.80;2.30;;;;;;;2.40;61.95;97599.92;106098;1316;136991;-62
2021/11/30 12:42:44;;;;;;;10.60;4.20;;;;;;;2.43;61.55;97598.67;106216;1320;22484;-62
2021/11/30 12:45:15;;;;;;;7.90;3.30;;;;;;;2.45;61.26;97594.20;106077;1319;137522;-62
2021/11/30 12:47:43;;;;;;;7.30;3.40;;;;;;;2.47;61.29;97596.85;105984;1321;22524;-62
2021/11/30 12:50:26;;;;;;;5.30;2.80;;;;;;;2.50;60.82;97598.17;105915;1318;137340;-63
2021/11/30 12:53:03;;;;;;;6.20;2.50;;;;;;;2.53;60.73;97597.09;106169;1318;22511;-62
2021/11/30 12:55:52;;;;;;;5.30;2.50;;;;;;;2.57;59.93;97608.52;105958;1316;221444;-63
2021/11/30 12:58:45;;;;;;;7.60;3.60;;;;;;;2.56;59.21;97611.48;106162;1316;22271;-63
2021/11/30 13:01:14;;;;;;;5.20;2.70;;;;;;;2.54;59.84;97626.34;106193;1320;23075;-62
2021/11/30 13:03:43;;;;;;;4.40;2.00;;;;;;;2.55;59.69;97641.73;106085;1316;137388;-62
2021/11/30 13:06:12;;;;;;;5.90;2.30;;;;;;;2.54;59.69;97653.39;105217;1317;22403;-62
2021/11/30 13:08:59;;;;;;;4.30;2.30;;;;;;;2.53;59.86;97664.34;105941;1316;137795;-62
2021/11/30 13:11:30;;;;;;;4.60;2.70;;;;;;;2.53;59.93;97670.58;106178;1318;22450;-62
2021/11/30 13:14:00;;;;;;;7.20;3.20;;;;;;;2.53;59.74;97668.00;106093;1316;140527;-62
2021/11/30 13:16:29;;;;;;;5.80;2.90;;;;;;;2.53;59.52;97677.66;106156;1318;22564;-62
2021/11/30 13:19:02;;;;;;;8.20;3.10;;;;;;;2.50;60.02;97685.59;106154;1316;22422;-62
2021/11/30 13:21:35;;;;;;;4.90;2.80;;;;;;;2.52;60.47;97692.65;106007;1316;137618;-61
2021/11/30 13:24:06;;;;;;;8.00;4.10;;;;;;;2.52;60.71;97702.98;106203;1316;22504;-62
2021/11/30 13:26:35;;;;;;;10.40;5.30;;;;;;;2.52;60.92;97705.67;106114;1316;137931;-62
2021/11/30 13:29:03;;;;;;;13.70;7.30;;;;;;;2.51;60.95;97709.52;106223;1316;22464;-62
2021/11/30 13:31:32;;;;;;;13.20;7.50;;;;;;;2.50;61.44;97708.49;106136;1316;137801;-62
2021/11/30 13:34:01;;;;;;;16.60;9.20;;;;;;;2.51;61.47;97707.85;106064;1316;22382;-62
2021/11/30 13:36:31;;;;;;;21.10;10.30;;;;;;;2.51;61.46;97711.41;106157;1316;22374;-62
2021/11/30 13:39:00;;;;;;;19.40;9.60;;;;;;;2.51;61.34;97719.84;106089;1318;137275;-62
2021/11/30 13:41:29;;;;;;;10.00;5.60;;;;;;;2.51;61.55;97718.02;106192;1319;23659;-62
2021/11/30 13:43:57;;;;;;;14.80;5.20;;;;;;;2.51;61.74;97724.80;106055;1316;137780;-62
2021/11/30 13:46:28;;;;;;;12.90;5.70;;;;;;;2.51;61.73;97723.61;106207;1317;23243;-62
2021/11/30 13:49:00;;;;;;;15.40;5.60;;;;;;;2.51;61.76;97722.70;106193;1316;22469;-62
2021/11/30 13:51:35;;;;;;;12.30;5.70;;;;;;;2.50;61.87;97721.61;106111;1316;137656;-61
2021/11/30 13:54:06;;;;;;;11.80;5.90;;;;;;;2.48;61.67;97718.84;106256;1316;22441;-62
2021/11/30 13:56:43;;;;;;;12.50;5.90;;;;;;;2.47;61.87;97723.29;103861;1315;138706;-62
2021/11/30 13:59:36;;;;;;;12.70;7.00;;;;;;;2.44;61.94;97720.90;106195;1316;23537;-63
2021/11/30 14:02:38;;;;;;;12.70;6.60;;;;;;;2.43;62.21;97719.23;105992;1316;138383;-63